Time,TemperatureF,DewpointF,PressureIn,WindDirection,WindDirectionDegrees,WindSpeedMPH,WindSpeedGustMPH,Humidity,HourlyPrecipIn,Conditions,Clouds,dailyrainin,SoftwareType,DateUTC
2013-02-16 00:07:00,55.7,23.0,30.19,East,96,0.0,1.0,28,0.00,,,0.00,weatherlink.com 1.10,2013-02-16 08:07:00,
2013-02-16 00:22:00,54.9,24.0,30.19,ESE,120,0.0,1.0,30,0.00,,,0.00,weatherlink.com 1.10,2013-02-16 08:22:00,
2013-02-16 00:37:00,54.7,22.0,30.18,SSE,153,0.0,1.0,28,0.00,,,0.00,weatherlink.com 1.10,2013-02-16 08:37:00,
2013-02-16 00:52:00,55.2,23.0,30.18,ESE,123,0.0,2.0,29,0.00,,,0.00,weatherlink.com 1.10,2013-02-16 08:52:00,
2013-02-16 01:07:00,55.6,20.0,30.18,NNE,21,2.0,2.0,25,0.00,,,0.00,weatherlink.com 1.10,2013-02-16 09:07:00,
2013-02-16 01:22:00,55.4,23.0,30.18,East,98,0.0,3.0,28,0.00,,,0.00,weatherlink.com 1.10,2013-02-16 09:22:00,
2013-02-16 01:37:00,55.0,21.0,30.17,ENE,61,0.0,1.0,27,0.00,,,0.00,weatherlink.com 1.10,2013-02-16 09:37:00,
2013-02-16 01:52:00,55.2,22.0,30.16,East,97,0.0,1.0,27,0.00,,,0.00,weatherlink.com 1.10,2013-02-16 09:52:00,
2013-02-16 02:07:00,54.7,22.0,30.16,East,96,0.0,1.0,28,0.00,,,0.00,weatherlink.com 1.10,2013-02-16 10:07:00,
2013-02-16 02:24:00,55.9,21.0,30.16,East,98,0.0,3.0,26,0.00,,,0.00,weatherlink.com 1.10,2013-02-16 10:24:00,
2013-02-16 02:39:00,55.0,21.0,30.15,ESE,105,0.0,1.0,27,0.00,,,0.00,weatherlink.com 1.10,2013-02-16 10:39:00,
2013-02-16 02:54:00,56.5,19.0,30.15,NNE,22,1.0,4.0,23,0.00,,,0.00,weatherlink.com 1.10,2013-02-16 10:54:00,
2013-02-16 03:09:00,61.0,18.0,30.14,NNE,19,1.0,6.0,19,0.00,,,0.00,weatherlink.com 1.10,2013-02-16 11:09:00,
2013-02-16 03:24:00,61.6,19.0,30.14,NNW,329,0.0,5.0,19,0.00,,,0.00,weatherlink.com 1.10,2013-02-16 11:24:00,
2013-02-16 03:39:00,59.4,19.0,30.14,ESE,115,1.0,1.0,21,0.00,,,0.00,weatherlink.com 1.10,2013-02-16 11:39:00,
2013-02-16 03:54:00,56.7,21.0,30.14,SE,132,0.0,1.0,25,0.00,,,0.00,weatherlink.com 1.10,2013-02-16 11:54:00,
2013-02-16 04:09:00,56.2,20.0,30.14,SE,124,0.0,1.0,24,0.00,,,0.00,weatherlink.com 1.10,2013-02-16 12:09:00,
2013-02-16 04:24:00,55.5,23.0,30.14,ENE,58,1.0,2.0,28,0.00,,,0.00,weatherlink.com 1.10,2013-02-16 12:24:00,
2013-02-16 04:39:00,55.5,23.0,30.14,NE,49,0.0,2.0,28,0.00,,,0.00,weatherlink.com 1.10,2013-02-16 12:39:00,
2013-02-16 04:54:00,54.7,23.0,30.14,East,84,0.0,2.0,29,0.00,,,0.00,weatherlink.com 1.10,2013-02-16 12:54:00,
2013-02-16 05:09:00,54.3,21.0,30.14,ESE,117,0.0,1.0,27,0.00,,,0.00,weatherlink.com 1.10,2013-02-16 13:09:00,
2013-02-16 05:24:00,53.2,22.0,30.14,ESE,117,0.0,1.0,29,0.00,,,0.00,weatherlink.com 1.10,2013-02-16 13:24:00,
2013-02-16 05:39:00,51.4,21.0,30.14,ESE,117,0.0,1.0,30,0.00,,,0.00,weatherlink.com 1.10,2013-02-16 13:39:00,
2013-02-16 05:54:00,50.4,23.0,30.14,ESE,115,2.0,3.0,34,0.00,,,0.00,weatherlink.com 1.10,2013-02-16 13:54:00,
2013-02-16 06:09:00,50.5,22.0,30.14,ESE,114,0.0,2.0,33,0.00,,,0.00,weatherlink.com 1.10,2013-02-16 14:09:00,
2013-02-16 06:24:00,50.1,23.0,30.15,ESE,114,0.0,1.0,34,0.00,,,0.00,weatherlink.com 1.10,2013-02-16 14:24:00,
2013-02-16 06:39:00,49.5,23.0,30.15,ESE,119,0.0,1.0,35,0.00,,,0.00,weatherlink.com 1.10,2013-02-16 14:39:00,
2013-02-16 06:54:00,50.1,24.0,30.15,ESE,107,0.0,1.0,36,0.00,,,0.00,weatherlink.com 1.10,2013-02-16 14:54:00,
2013-02-16 07:09:00,50.8,24.0,30.15,ESE,108,0.0,2.0,35,0.00,,,0.00,weatherlink.com 1.10,2013-02-16 15:09:00,
2013-02-16 07:24:00,51.5,26.0,30.15,ESE,108,0.0,1.0,37,0.00,,,0.00,weatherlink.com 1.10,2013-02-16 15:24:00,
2013-02-16 07:39:00,52.0,26.0,30.16,ESE,108,0.0,0.0,36,0.00,,,0.00,weatherlink.com 1.10,2013-02-16 15:39:00,
2013-02-16 07:54:00,53.2,30.0,30.16,ESE,117,0.0,1.0,41,0.00,,,0.00,weatherlink.com 1.10,2013-02-16 15:54:00,
2013-02-16 08:10:00,56.5,27.0,30.16,ENE,71,1.0,2.0,32,0.00,,,0.00,weatherlink.com 1.10,2013-02-16 16:10:00,
2013-02-16 08:25:00,61.3,25.0,30.16,NE,53,0.0,2.0,25,0.00,,,0.00,weatherlink.com 1.10,2013-02-16 16:25:00,
2013-02-16 08:40:00,63.3,26.0,30.16,ENE,73,0.0,2.0,24,0.00,,,0.00,weatherlink.com 1.10,2013-02-16 16:40:00,
2013-02-16 08:55:00,67.2,27.0,30.15,SSE,152,0.0,3.0,22,0.00,,,0.00,weatherlink.com 1.10,2013-02-16 16:55:00,
2013-02-16 09:10:00,67.7,30.0,30.16,SSW,208,1.0,4.0,24,0.00,,,0.00,weatherlink.com 1.10,2013-02-16 17:10:00,
2013-02-16 09:25:00,69.7,31.0,30.15,ESE,104,0.0,2.0,24,0.00,,,0.00,weatherlink.com 1.10,2013-02-16 17:25:00,
2013-02-16 09:40:00,70.4,22.0,30.15,NNE,31,0.0,3.0,16,0.00,,,0.00,weatherlink.com 1.10,2013-02-16 17:40:00,
2013-02-16 09:56:00,70.8,24.0,30.15,North,349,0.0,3.0,17,0.00,,,0.00,weatherlink.com 1.10,2013-02-16 17:56:00,
2013-02-16 10:11:00,72.4,25.0,30.14,NNW,336,2.0,3.0,17,0.00,,,0.00,weatherlink.com 1.10,2013-02-16 18:11:00,
2013-02-16 10:26:00,72.2,26.0,30.14,NNE,23,0.0,2.0,18,0.00,,,0.00,weatherlink.com 1.10,2013-02-16 18:26:00,
2013-02-16 10:41:00,72.4,24.0,30.14,ESE,119,1.0,3.0,16,0.00,,,0.00,weatherlink.com 1.10,2013-02-16 18:41:00,
2013-02-16 10:56:00,74.5,22.0,30.13,NNE,18,1.0,7.0,14,0.00,,,0.00,weatherlink.com 1.10,2013-02-16 18:56:00,
2013-02-16 11:11:00,75.6,23.0,30.12,NE,55,0.0,5.0,14,0.00,,,0.00,weatherlink.com 1.10,2013-02-16 19:11:00,
2013-02-16 11:26:00,75.0,26.0,30.11,SE,139,1.0,3.0,16,0.00,,,0.00,weatherlink.com 1.10,2013-02-16 19:26:00,
2013-02-16 11:41:00,74.7,26.0,30.10,SW,229,0.0,4.0,16,0.00,,,0.00,weatherlink.com 1.10,2013-02-16 19:41:00,
2013-02-16 11:56:00,75.9,23.0,30.09,East,96,0.0,2.0,14,0.00,,,0.00,weatherlink.com 1.10,2013-02-16 19:56:00,
2013-02-16 12:11:00,77.7,23.0,30.08,NNE,27,2.0,4.0,13,0.00,,,0.00,weatherlink.com 1.10,2013-02-16 20:11:00,
2013-02-16 12:27:00,79.3,18.0,30.07,SSE,156,2.0,7.0,10,0.00,,,0.00,weatherlink.com 1.10,2013-02-16 20:27:00,
2013-02-16 12:42:00,79.7,18.0,30.05,East,91,1.0,5.0,10,0.00,,,0.00,weatherlink.com 1.10,2013-02-16 20:42:00,
2013-02-16 12:57:00,81.0,17.0,30.05,SE,140,1.0,6.0,9,0.00,,,0.00,weatherlink.com 1.10,2013-02-16 20:57:00,
2013-02-16 13:12:00,80.3,14.0,30.04,NE,52,0.0,5.0,8,0.00,,,0.00,weatherlink.com 1.10,2013-02-16 21:12:00,
2013-02-16 13:27:00,80.6,11.0,30.03,North,11,1.0,5.0,7,0.00,,,0.00,weatherlink.com 1.10,2013-02-16 21:27:00,
2013-02-16 13:42:00,80.2,14.0,30.02,ENE,60,1.0,6.0,8,0.00,,,0.00,weatherlink.com 1.10,2013-02-16 21:42:00,
2013-02-16 13:57:00,80.1,14.0,30.01,SE,134,4.0,5.0,8,0.00,,,0.00,weatherlink.com 1.10,2013-02-16 21:57:00,
2013-02-16 14:12:00,79.7,21.0,30.01,NNW,338,1.0,6.0,11,0.00,,,0.00,weatherlink.com 1.10,2013-02-16 22:12:00,
2013-02-16 14:27:00,80.1,14.0,30.00,North,5,0.0,3.0,8,0.00,,,0.00,weatherlink.com 1.10,2013-02-16 22:27:00,
2013-02-16 14:42:00,79.9,16.0,29.99,SSE,159,2.0,3.0,9,0.00,,,0.00,weatherlink.com 1.10,2013-02-16 22:42:00,
2013-02-16 14:57:00,80.7,17.0,29.99,ENE,69,1.0,5.0,9,0.00,,,0.00,weatherlink.com 1.10,2013-02-16 22:57:00,
2013-02-16 15:13:00,80.7,14.0,29.98,ESE,122,2.0,3.0,8,0.00,,,0.00,weatherlink.com 1.10,2013-02-16 23:13:00,
2013-02-16 15:29:00,80.4,16.0,29.98,NE,41,0.0,5.0,9,0.00,,,0.00,weatherlink.com 1.10,2013-02-16 23:29:00,
2013-02-16 15:44:00,79.8,16.0,29.97,East,101,1.0,3.0,9,0.00,,,0.00,weatherlink.com 1.10,2013-02-16 23:44:00,
2013-02-16 15:59:00,79.8,19.0,29.97,ESE,121,0.0,4.0,10,0.00,,,0.00,weatherlink.com 1.10,2013-02-16 23:59:00,
2013-02-16 16:14:00,78.8,15.0,29.97,SE,136,0.0,3.0,9,0.00,,,0.00,weatherlink.com 1.10,2013-02-17 00:14:00,
2013-02-16 16:29:00,78.0,17.0,29.96,East,94,1.0,1.0,10,0.00,,,0.00,weatherlink.com 1.10,2013-02-17 00:29:00,
2013-02-16 16:59:00,75.5,21.0,29.96,West,276,1.0,6.0,13,0.00,,,0.00,weatherlink.com 1.10,2013-02-17 00:59:00,
2013-02-16 17:14:00,73.2,23.0,29.96,SSW,212,2.0,8.0,15,0.00,,,0.00,weatherlink.com 1.10,2013-02-17 01:14:00,
2013-02-16 17:29:00,71.5,23.0,29.97,West,271,0.0,4.0,16,0.00,,,0.00,weatherlink.com 1.10,2013-02-17 01:29:00,
2013-02-16 17:44:00,69.4,24.0,29.97,NNW,327,0.0,3.0,18,0.00,,,0.00,weatherlink.com 1.10,2013-02-17 01:44:00,
2013-02-16 17:59:00,66.2,24.0,29.98,WNW,295,0.0,1.0,20,0.00,,,0.00,weatherlink.com 1.10,2013-02-17 01:59:00,
2013-02-16 18:14:00,63.5,29.0,29.98,WNW,295,0.0,1.0,27,0.00,,,0.00,weatherlink.com 1.10,2013-02-17 02:14:00,
2013-02-16 18:29:00,61.2,28.0,29.98,WNW,297,0.0,0.0,28,0.00,,,0.00,weatherlink.com 1.10,2013-02-17 02:29:00,
2013-02-16 18:44:00,60.2,29.0,29.98,East,98,0.0,1.0,31,0.00,,,0.00,weatherlink.com 1.10,2013-02-17 02:44:00,
2013-02-16 18:59:00,58.6,29.0,29.98,East,97,0.0,1.0,33,0.00,,,0.00,weatherlink.com 1.10,2013-02-17 02:59:00,
2013-02-16 19:14:00,57.4,30.0,29.98,East,97,0.0,0.0,36,0.00,,,0.00,weatherlink.com 1.10,2013-02-17 03:14:00,
2013-02-16 19:29:00,56.8,30.0,29.98,East,97,0.0,1.0,36,0.00,,,0.00,weatherlink.com 1.10,2013-02-17 03:29:00,
2013-02-16 19:44:00,55.9,29.0,29.98,East,97,0.0,1.0,36,0.00,,,0.00,weatherlink.com 1.10,2013-02-17 03:44:00,
2013-02-16 19:59:00,55.8,29.0,29.98,East,97,0.0,1.0,36,0.00,,,0.00,weatherlink.com 1.10,2013-02-17 03:59:00,
2013-02-16 20:14:00,55.2,29.0,29.98,East,97,0.0,0.0,37,0.00,,,0.00,weatherlink.com 1.10,2013-02-17 04:14:00,
2013-02-16 20:29:00,54.2,30.0,29.98,East,97,0.0,0.0,40,0.00,,,0.00,weatherlink.com 1.10,2013-02-17 04:29:00,
2013-02-16 20:44:00,53.7,28.0,29.98,East,97,1.0,1.0,38,0.00,,,0.00,weatherlink.com 1.10,2013-02-17 04:44:00,
2013-02-16 20:59:00,53.0,30.0,29.98,East,97,0.0,0.0,41,0.00,,,0.00,weatherlink.com 1.10,2013-02-17 04:59:00,
2013-02-16 21:16:00,52.5,28.0,29.99,East,97,0.0,1.0,39,0.00,,,0.00,weatherlink.com 1.10,2013-02-17 05:16:00,
2013-02-16 21:29:00,53.5,26.0,29.99,ESE,103,1.0,1.0,35,0.00,,,0.00,weatherlink.com 1.10,2013-02-17 05:29:00,
2013-02-16 21:45:00,53.2,27.0,29.99,ESE,110,0.0,1.0,36,0.00,,,0.00,weatherlink.com 1.10,2013-02-17 05:45:00,
2013-02-16 22:00:00,52.6,26.0,29.98,ESE,110,0.0,1.0,36,0.00,,,0.00,weatherlink.com 1.10,2013-02-17 06:00:00,
2013-02-16 22:15:00,52.1,27.0,29.98,ESE,110,0.0,1.0,38,0.00,,,0.00,weatherlink.com 1.10,2013-02-17 06:15:00,
2013-02-16 22:30:00,51.6,26.0,29.98,ESE,112,0.0,0.0,37,0.00,,,0.00,weatherlink.com 1.10,2013-02-17 06:30:00,
2013-02-16 22:45:00,52.1,24.0,29.97,ESE,111,1.0,1.0,34,0.00,,,0.00,weatherlink.com 1.10,2013-02-17 06:45:00,
2013-02-16 23:00:00,52.0,26.0,29.97,ESE,112,0.0,1.0,37,0.00,,,0.00,weatherlink.com 1.10,2013-02-17 07:00:00,
2013-02-16 23:15:00,50.4,27.0,29.96,ESE,112,0.0,0.0,40,0.00,,,0.00,weatherlink.com 1.10,2013-02-17 07:15:00,
2013-02-16 23:30:00,49.4,26.0,29.97,ESE,112,0.0,1.0,41,0.00,,,0.00,weatherlink.com 1.10,2013-02-17 07:30:00,
2013-02-16 23:45:00,50.5,26.0,29.96,East,93,0.0,2.0,38,0.00,,,0.00,weatherlink.com 1.10,2013-02-17 07:45:00,